KLSV/LSV METAR and TAF weather

Enter ICAO airport designator
Station Type Date Time Source
KLSV METAR 2021/09/28 15:58 UTC NOAA

KLSV 281558Z AUTO 15004KT 10SM CLR 26/09 A2978 RMK AO2 SLP061 T02560086 $


Station Type Date Time Source
KLSV Decoded METAR 2021/09/28 15:58 UTC NOAA

Nellis Air Force Base, NV, United States (KLSV) 36-14N 115-02W
Sep 28, 2021 - 11:58 AM EDT / 2021.09.28 1558 UTC
Wind: from the SSE (150 degrees) at 5 MPH (4 KT):0
Visibility: 10 mile(s):0
Sky conditions: clear
Temperature: 78.1 F (25.6 C)
Dew Point: 47.5 F (8.6 C)
Relative Humidity: 34%
Pressure (altimeter): 29.78 in. Hg (1008 hPa)
ob: KLSV 281558Z AUTO 15004KT 10SM CLR 26/09 A2978 RMK AO2 SLP061 T02560086
cycle: 16

Station Type Date Time Source
KLSV TAF 2021/09/28 15:51 UTC NOAA

TAF TAF KLSV 281500Z 2815/2921 15006KT 9000 HZ SKC QNH2975INS
BECMG 2818/2819 21010G18KT 9999 NSW SKC QNH2966INS
TEMPO 2818/2822 21015G25KT 520009
BECMG 2822/2823 22015G25KT 9999 FEW180 520009 QNH2967INS
BECMG 2903/2904 22010G15KT 9999 FEW200 QNH2971INS TX31/2822Z TN18/2913Z

Example: see airport list